createdAt,value
2022-12-12T00:01:53.928Z,62.78
2022-12-12T00:04:20.682Z,59.53
2022-12-12T00:06:47.605Z,54.97
2022-12-12T00:09:14.318Z,59.30
2022-12-12T00:11:41.063Z,60.67
2022-12-12T00:14:08.200Z,61.60
2022-12-12T00:16:34.933Z,59.47
2022-12-12T00:19:02.272Z,64.47
2022-12-12T00:21:29.990Z,63.08
2022-12-12T00:23:57.428Z,58.25
2022-12-12T00:26:25.136Z,67.30
2022-12-12T00:28:52.142Z,63.00
2022-12-12T00:31:19.390Z,57.13
2022-12-12T00:33:48.696Z,54.47
2022-12-12T00:36:17.626Z,56.83
2022-12-12T00:38:44.361Z,56.13
2022-12-12T00:41:11.192Z,55.67
2022-12-12T00:43:38.032Z,63.70
2022-12-12T00:46:05.189Z,55.28
2022-12-12T00:48:32.648Z,60.00
2022-12-12T00:51:07.628Z,57.45
2022-12-12T00:53:34.511Z,56.50
2022-12-12T00:56:01.221Z,58.30
2022-12-12T00:58:27.968Z,60.70
2022-12-12T01:00:54.807Z,62.10
2022-12-12T01:03:22.031Z,63.05
2022-12-12T01:05:49.306Z,57.17
2022-12-12T01:08:17.192Z,62.85
2022-12-12T01:10:43.956Z,59.00
2022-12-12T01:13:10.642Z,59.45
2022-12-12T01:15:37.319Z,65.35
2022-12-12T01:18:04.132Z,57.10
2022-12-12T01:20:30.911Z,61.03
2022-12-12T01:22:57.591Z,61.28
2022-12-12T01:25:24.374Z,56.17
2022-12-12T01:27:51.107Z,68.40
2022-12-12T01:30:20.625Z,60.08
2022-12-12T01:32:47.728Z,56.10
2022-12-12T01:35:15.112Z,63.67
2022-12-12T01:37:42.427Z,64.25
2022-12-12T01:40:15.314Z,60.90
2022-12-12T01:42:43.919Z,58.15
2022-12-12T01:45:48.128Z,57.30
2022-12-12T01:48:14.942Z,61.10
2022-12-12T01:50:43.206Z,67.57
2022-12-12T01:53:11.433Z,60.55
2022-12-12T01:55:38.260Z,60.03
2022-12-12T01:58:05.062Z,73.45
2022-12-12T02:00:32.123Z,55.28
2022-12-12T02:03:00.683Z,54.60
2022-12-12T02:05:36.370Z,59.88
2022-12-12T02:08:04.709Z,59.05
2022-12-12T02:10:31.538Z,56.40
2022-12-12T02:13:09.824Z,66.68
2022-12-12T02:15:45.717Z,54.60
2022-12-12T02:18:25.351Z,61.53
2022-12-12T02:21:39.417Z,59.75
2022-12-12T02:24:15.063Z,56.83
2022-12-12T02:27:06.231Z,57.22
2022-12-12T02:30:10.596Z,67.20
2022-12-12T02:32:50.631Z,70.53
2022-12-12T02:35:32.924Z,66.70
2022-12-12T02:38:14.326Z,70.30
2022-12-12T02:40:49.902Z,69.28
2022-12-12T02:43:31.355Z,72.05
2022-12-12T02:46:00.818Z,73.88
2022-12-12T02:48:47.739Z,68.30
2022-12-12T02:51:16.245Z,74.88
2022-12-12T02:53:43.170Z,74.07
2022-12-12T02:56:47.328Z,72.25
2022-12-12T02:59:25.656Z,71.05
2022-12-12T03:02:17.639Z,85.97
2022-12-12T03:05:12.351Z,79.13
2022-12-12T03:08:00.743Z,78.00
2022-12-12T03:11:02.044Z,72.65
2022-12-12T03:16:26.368Z,80.03
2022-12-12T03:19:08.979Z,77.78
2022-12-12T03:21:45.261Z,73.22
2022-12-12T03:24:35.904Z,83.35
2022-12-12T03:27:32.870Z,71.03
2022-12-12T03:30:02.957Z,75.68
2022-12-12T03:36:56.360Z,63.65
2022-12-12T03:39:30.378Z,74.65
2022-12-12T03:42:04.802Z,67.07
2022-12-12T03:44:45.989Z,75.40
2022-12-12T03:49:45.574Z,71.35
2022-12-12T03:52:42.753Z,76.97
2022-12-12T03:55:15.432Z,79.80
2022-12-12T03:57:49.755Z,73.40
2022-12-12T04:00:16.766Z,77.72
2022-12-12T04:02:51.770Z,74.65
2022-12-12T04:05:28.282Z,67.65
2022-12-12T04:08:02.877Z,66.05
2022-12-12T04:10:52.132Z,68.43
2022-12-12T04:13:45.920Z,68.28
2022-12-12T04:16:16.104Z,73.30
2022-12-12T04:19:04.622Z,72.53
2022-12-12T04:21:52.335Z,75.38
2022-12-12T04:24:49.045Z,74.15
2022-12-12T04:27:50.813Z,69.70
2022-12-12T04:30:17.429Z,79.85
2022-12-12T04:32:53.488Z,68.15
2022-12-12T04:35:31.180Z,78.38
2022-12-12T04:38:00.990Z,76.13
2022-12-12T04:40:30.102Z,77.25
2022-12-12T04:42:59.536Z,68.70
2022-12-12T04:45:33.123Z,74.32
2022-12-12T04:48:00.255Z,73.07
2022-12-12T04:50:28.642Z,73.30
2022-12-12T04:52:56.468Z,67.47
2022-12-12T04:55:26.552Z,84.63
2022-12-12T04:57:54.732Z,69.90
2022-12-12T05:00:22.719Z,70.38
2022-12-12T05:03:08.313Z,66.53
2022-12-12T05:05:46.643Z,74.53
2022-12-12T05:08:26.631Z,72.13
2022-12-12T05:10:59.496Z,65.50
2022-12-12T05:13:41.041Z,78.00
2022-12-12T05:16:18.057Z,64.95
2022-12-12T05:18:44.938Z,67.88
2022-12-12T05:21:11.425Z,71.20
2022-12-12T05:23:39.156Z,69.13
2022-12-12T05:26:07.550Z,76.70
2022-12-12T05:28:34.439Z,70.47
2022-12-12T05:31:00.991Z,62.58
2022-12-12T05:33:27.821Z,71.50
2022-12-12T05:35:54.391Z,73.93
2022-12-12T05:38:20.874Z,72.85
2022-12-12T05:40:47.373Z,69.65
2022-12-12T05:43:13.850Z,71.15
2022-12-12T05:45:40.441Z,80.00
2022-12-12T05:48:06.942Z,71.55
2022-12-12T05:50:33.417Z,72.93
2022-12-12T05:53:00.146Z,77.45
2022-12-12T05:55:27.057Z,67.88
2022-12-12T05:57:53.569Z,66.97
2022-12-12T06:00:20.425Z,65.53
2022-12-12T06:02:46.985Z,66.72
2022-12-12T06:05:13.586Z,76.05
2022-12-12T06:07:40.208Z,71.45
2022-12-12T06:10:07.469Z,79.55
2022-12-12T06:12:33.979Z,76.90
2022-12-12T06:15:00.457Z,73.15
2022-12-12T06:17:31.388Z,86.72
2022-12-12T06:19:59.763Z,77.90
2022-12-12T06:22:27.158Z,81.68
2022-12-12T06:24:53.684Z,70.38
2022-12-12T06:27:20.167Z,75.43
2022-12-12T06:29:46.714Z,86.03
2022-12-12T06:32:13.186Z,86.38
2022-12-12T06:34:39.754Z,77.40
2022-12-12T06:37:06.616Z,80.90
2022-12-12T06:39:33.361Z,89.35
2022-12-12T06:41:59.878Z,81.07
2022-12-12T06:44:26.471Z,88.57
2022-12-12T06:46:53.036Z,83.57
2022-12-12T06:49:19.529Z,76.40
2022-12-12T06:51:46.308Z,81.85
2022-12-12T06:54:14.574Z,77.55
2022-12-12T06:56:47.689Z,76.40
2022-12-12T06:59:15.423Z,69.30
2022-12-12T07:01:41.956Z,76.80
2022-12-12T07:04:08.583Z,81.45
2022-12-12T07:06:35.064Z,76.93
2022-12-12T07:09:02.967Z,75.57
2022-12-12T07:11:29.698Z,77.82
2022-12-12T07:13:57.054Z,85.50
2022-12-12T07:16:24.388Z,82.75
2022-12-12T07:18:50.962Z,77.45
2022-12-12T07:21:19.340Z,85.57
2022-12-12T07:23:46.589Z,94.70
2022-12-12T07:26:15.940Z,81.15
2022-12-12T07:28:42.479Z,83.47
2022-12-12T07:31:11.014Z,83.13
2022-12-12T07:33:43.541Z,83.97
2022-12-12T07:36:15.936Z,80.43
2022-12-12T07:38:43.363Z,79.95
2022-12-12T07:41:13.022Z,84.65
2022-12-12T07:43:43.706Z,79.78
2022-12-12T07:46:14.809Z,78.32
2022-12-12T07:48:42.077Z,90.28
2022-12-12T07:51:08.810Z,75.95
2022-12-12T07:53:35.434Z,79.65
2022-12-12T07:56:06.115Z,82.22
2022-12-12T07:58:32.699Z,81.70
2022-12-12T08:00:59.401Z,81.78
2022-12-12T08:03:26.128Z,85.43
2022-12-12T08:05:52.766Z,92.93
2022-12-12T08:08:19.843Z,81.65
2022-12-12T08:10:46.503Z,77.60
2022-12-12T08:13:13.191Z,85.68
2022-12-12T08:15:39.799Z,85.10
2022-12-12T08:18:06.404Z,101.13
2022-12-12T08:20:33.140Z,74.85
2022-12-12T08:23:00.209Z,84.60
2022-12-12T08:25:26.932Z,78.18
2022-12-12T08:27:54.173Z,81.43
2022-12-12T08:30:21.669Z,72.53
2022-12-12T08:32:49.097Z,72.68
2022-12-12T08:35:16.238Z,73.20
2022-12-12T08:37:43.244Z,67.32
2022-12-12T08:40:10.855Z,77.50
2022-12-12T08:42:38.099Z,67.47
2022-12-12T08:45:05.219Z,69.68
2022-12-12T08:47:31.932Z,75.43
2022-12-12T08:50:00.970Z,59.17
2022-12-12T08:52:27.780Z,59.67
2022-12-12T08:54:54.722Z,60.30
2022-12-12T08:57:25.754Z,65.75
2022-12-12T08:59:52.603Z,57.63
2022-12-12T09:02:19.502Z,67.13
2022-12-12T09:04:46.118Z,67.38
2022-12-12T09:07:12.685Z,56.17
2022-12-12T09:09:39.312Z,56.83
2022-12-12T09:12:06.262Z,55.60
2022-12-12T09:14:33.523Z,48.95
2022-12-12T09:17:00.099Z,50.67
2022-12-12T09:19:26.801Z,51.08
2022-12-12T09:21:53.356Z,53.55
2022-12-12T09:24:19.880Z,44.75
2022-12-12T09:26:46.398Z,51.45
2022-12-12T09:29:13.052Z,42.28
2022-12-12T09:31:39.848Z,47.30
2022-12-12T09:34:06.469Z,47.05
2022-12-12T09:36:33.047Z,37.88
2022-12-12T09:39:00.885Z,41.65
2022-12-12T09:41:27.560Z,37.83
2022-12-12T09:44:23.267Z,43.55
2022-12-12T09:46:51.720Z,40.50
2022-12-12T09:49:43.053Z,33.90
2022-12-12T09:52:20.313Z,33.00
2022-12-12T09:54:47.028Z,37.63
2022-12-12T09:57:31.532Z,37.47
2022-12-12T10:00:10.442Z,34.55
2022-12-12T10:02:45.196Z,35.60
2022-12-12T10:05:38.598Z,35.03
2022-12-12T10:08:17.512Z,37.45
2022-12-12T10:11:28.285Z,35.28
2022-12-12T10:13:55.801Z,44.30
2022-12-12T10:16:22.870Z,35.13
2022-12-12T10:18:52.398Z,40.53
2022-12-12T10:21:26.060Z,44.05
2022-12-12T10:24:29.466Z,43.88
2022-12-12T10:26:57.348Z,39.63
2022-12-12T10:29:26.303Z,39.75
2022-12-12T10:32:03.023Z,41.80
2022-12-12T10:34:43.700Z,38.30
2022-12-12T10:37:48.204Z,43.27
2022-12-12T10:40:23.033Z,34.15
2022-12-12T10:42:55.329Z,37.20
2022-12-12T10:46:00.041Z,38.63
2022-12-12T10:48:28.060Z,38.83
2022-12-12T10:50:59.851Z,31.23
2022-12-12T10:53:26.927Z,35.33
2022-12-12T10:56:09.531Z,38.83
2022-12-12T10:58:43.774Z,35.25
2022-12-12T11:04:24.372Z,36.75
2022-12-12T11:06:52.264Z,36.45
2022-12-12T11:09:26.723Z,40.97
2022-12-12T11:11:57.712Z,37.92
2022-12-12T11:14:37.587Z,33.50
2022-12-12T11:17:27.960Z,38.83
2022-12-12T11:19:57.008Z,37.97
2022-12-12T11:22:24.216Z,44.60
2022-12-12T11:24:51.110Z,34.55
2022-12-12T11:27:28.691Z,39.78
2022-12-12T11:29:59.379Z,36.88
2022-12-12T11:32:27.393Z,36.65
2022-12-12T11:34:56.312Z,34.08
2022-12-12T11:37:29.325Z,37.55
2022-12-12T11:39:56.767Z,35.08
2022-12-12T11:42:27.004Z,38.42
2022-12-12T11:44:59.542Z,37.67
2022-12-12T11:47:40.740Z,31.05
2022-12-12T11:50:27.817Z,31.10
2022-12-12T11:52:56.333Z,33.55
2022-12-12T11:55:34.702Z,31.98
2022-12-12T11:58:14.322Z,34.13
2022-12-12T12:00:50.582Z,34.70
2022-12-12T12:03:29.779Z,29.75
2022-12-12T12:06:14.720Z,35.80
2022-12-12T12:09:05.540Z,38.03
2022-12-12T12:11:50.299Z,31.75
2022-12-12T12:14:40.699Z,32.40
2022-12-12T12:17:19.760Z,40.97
2022-12-12T12:20:03.141Z,34.20
2022-12-12T12:22:32.521Z,35.25
2022-12-12T12:25:25.112Z,33.30
2022-12-12T12:28:26.147Z,30.00
2022-12-12T12:31:11.007Z,28.13
2022-12-12T12:34:00.521Z,34.30
2022-12-12T12:36:50.234Z,30.70
2022-12-12T12:39:47.959Z,27.75
2022-12-12T12:42:49.399Z,31.73
2022-12-12T12:45:37.617Z,33.15
2022-12-12T12:48:28.195Z,33.40
2022-12-12T12:50:57.582Z,32.78
2022-12-12T12:53:43.624Z,37.00
2022-12-12T12:56:26.914Z,30.63
2022-12-12T12:58:56.985Z,29.42
2022-12-12T13:01:31.724Z,32.45
2022-12-12T13:04:10.424Z,32.83
2022-12-12T13:06:49.594Z,32.80
2022-12-12T13:09:24.107Z,40.75
2022-12-12T13:11:54.454Z,26.15
2022-12-12T13:14:35.697Z,35.33
2022-12-12T13:19:38.049Z,24.00
2022-12-12T13:22:09.361Z,27.70
2022-12-12T13:24:42.371Z,26.80
2022-12-12T13:27:25.047Z,26.63
2022-12-12T13:30:13.213Z,22.38
2022-12-12T13:33:11.977Z,20.70
2022-12-12T13:35:45.722Z,20.48
2022-12-12T13:38:22.497Z,19.20
2022-12-12T13:41:02.321Z,22.85
2022-12-12T13:43:40.548Z,31.17
2022-12-12T13:46:23.583Z,21.85
2022-12-12T13:49:11.253Z,23.63
2022-12-12T13:51:40.724Z,27.27
2022-12-12T13:54:18.798Z,25.23
2022-12-12T13:56:47.793Z,23.73
2022-12-12T13:59:23.209Z,22.33
2022-12-12T14:02:10.987Z,25.20
2022-12-12T14:04:41.701Z,20.75
2022-12-12T14:07:16.740Z,19.27
2022-12-12T14:09:48.952Z,17.80
2022-12-12T14:12:19.746Z,23.70
2022-12-12T14:15:08.569Z,18.70
2022-12-12T14:17:42.100Z,19.23
2022-12-12T14:20:30.492Z,19.20
2022-12-12T14:23:00.027Z,22.55
2022-12-12T14:25:34.026Z,21.88
2022-12-12T14:28:15.878Z,21.60
2022-12-12T14:31:15.800Z,18.48
2022-12-12T14:34:04.062Z,21.83
2022-12-12T14:36:54.394Z,20.55
2022-12-12T14:39:42.262Z,21.65
2022-12-12T14:43:15.624Z,24.25
2022-12-12T14:45:26.113Z,26.85
2022-12-12T14:48:31.168Z,25.00
2022-12-12T14:51:27.473Z,23.30
2022-12-12T14:53:57.834Z,22.30
2022-12-12T14:56:30.912Z,24.33
2022-12-12T14:58:59.515Z,28.83
2022-12-12T15:01:34.898Z,27.45
2022-12-12T15:04:09.895Z,25.50
2022-12-12T15:06:38.666Z,31.00
2022-12-12T15:09:10.903Z,26.63
2022-12-12T15:11:37.603Z,27.98
2022-12-12T15:14:04.668Z,27.95
2022-12-12T15:16:44.182Z,29.10
2022-12-12T15:19:17.088Z,27.55
2022-12-12T15:21:44.719Z,26.35
2022-12-12T15:24:22.861Z,26.20
2022-12-12T15:26:51.943Z,25.05
2022-12-12T15:29:22.025Z,33.40
2022-12-12T15:31:54.202Z,28.33
2022-12-12T15:34:38.277Z,32.88
2022-12-12T15:37:25.114Z,25.02
2022-12-12T15:40:06.728Z,23.30
2022-12-12T15:42:33.597Z,31.58
2022-12-12T15:45:02.230Z,31.85
2022-12-12T15:47:28.927Z,31.02
2022-12-12T15:50:07.531Z,28.17
2022-12-12T15:52:35.642Z,30.52
2022-12-12T15:55:05.111Z,29.45
2022-12-12T15:57:44.621Z,31.92
2022-12-12T16:00:33.420Z,29.58
2022-12-12T16:03:05.750Z,31.52
2022-12-12T16:05:38.059Z,29.08
2022-12-12T16:08:31.694Z,28.35
2022-12-12T16:11:18.410Z,32.58
2022-12-12T16:13:49.160Z,27.98
2022-12-12T16:16:33.439Z,32.40
2022-12-12T16:19:00.174Z,31.55
2022-12-12T16:21:29.828Z,32.72
2022-12-12T16:24:10.967Z,34.53
2022-12-12T16:29:05.137Z,29.17
2022-12-12T16:31:31.819Z,35.63
2022-12-12T16:34:02.405Z,35.95
2022-12-12T16:36:29.619Z,36.35
2022-12-12T16:38:56.466Z,38.08
2022-12-12T16:41:23.874Z,39.15
2022-12-12T16:43:53.087Z,35.90
2022-12-12T16:46:21.872Z,34.13
2022-12-12T16:48:48.852Z,34.75
2022-12-12T16:51:26.162Z,43.33
2022-12-12T16:53:56.177Z,40.28
2022-12-12T16:56:22.876Z,45.17
2022-12-12T16:58:50.654Z,33.22
2022-12-12T17:01:17.814Z,36.33
2022-12-12T17:03:44.927Z,42.50
2022-12-12T17:06:11.712Z,43.40
2022-12-12T17:08:41.522Z,41.33
2022-12-12T17:11:09.569Z,34.92
2022-12-12T17:13:41.174Z,41.53
2022-12-12T17:16:08.991Z,38.53
2022-12-12T17:18:57.806Z,41.60
2022-12-12T17:22:00.710Z,41.50
2022-12-12T17:25:02.400Z,50.65
2022-12-12T17:28:03.831Z,46.25
2022-12-12T17:31:07.285Z,50.67
2022-12-12T17:34:10.001Z,58.40
2022-12-12T17:37:11.205Z,45.97
2022-12-12T17:40:16.166Z,52.08
2022-12-12T17:43:16.861Z,56.13
2022-12-12T17:46:20.823Z,59.63
2022-12-12T17:49:21.808Z,52.35
2022-12-12T17:55:55.057Z,43.20
2022-12-12T17:58:48.416Z,56.08
2022-12-12T18:01:48.815Z,40.15
2022-12-12T18:04:50.903Z,49.83
2022-12-12T18:07:52.230Z,48.03
2022-12-12T18:10:53.770Z,55.50
2022-12-12T18:13:54.769Z,57.55
2022-12-12T18:17:00.167Z,55.53
2022-12-12T18:20:00.828Z,59.28
2022-12-12T18:23:02.057Z,58.83
2022-12-12T18:29:08.987Z,49.00
2022-12-12T18:32:12.857Z,61.63
2022-12-12T18:35:08.111Z,56.13
2022-12-12T18:38:10.909Z,54.50
2022-12-12T18:41:20.057Z,59.40
2022-12-12T18:44:25.893Z,63.15
2022-12-12T18:47:27.816Z,56.08
2022-12-12T18:50:31.109Z,49.38
2022-12-12T18:53:32.026Z,54.35
2022-12-12T18:56:35.980Z,58.95
2022-12-12T18:59:38.855Z,71.03
2022-12-12T19:02:43.975Z,73.07
2022-12-12T19:05:44.800Z,65.95
2022-12-12T19:08:45.868Z,67.88
2022-12-12T19:11:48.825Z,63.22
2022-12-12T19:15:15.931Z,64.68
2022-12-12T19:18:12.822Z,71.65
2022-12-12T19:21:26.803Z,64.93
2022-12-12T19:24:27.844Z,60.75
2022-12-12T19:27:28.865Z,67.43
2022-12-12T19:33:31.830Z,57.67
2022-12-12T19:36:36.012Z,61.10
2022-12-12T19:39:37.870Z,65.80
2022-12-12T19:42:38.897Z,69.05
2022-12-12T19:45:39.900Z,60.63
2022-12-12T19:48:40.871Z,71.45
2022-12-12T19:54:37.152Z,64.70
2022-12-12T19:57:37.797Z,74.40
2022-12-12T20:00:38.862Z,77.53
2022-12-12T20:06:46.848Z,64.00
2022-12-12T20:09:49.376Z,82.50
2022-12-12T20:12:58.223Z,62.10
2022-12-12T20:16:01.232Z,74.75
2022-12-12T20:19:01.899Z,85.30
2022-12-12T20:24:59.216Z,74.00
2022-12-12T20:27:59.861Z,73.82
2022-12-12T20:31:01.402Z,68.65
2022-12-12T20:34:03.842Z,75.60
2022-12-12T20:37:04.961Z,74.35
2022-12-12T20:40:00.016Z,77.63
2022-12-12T20:43:03.636Z,68.80
2022-12-12T20:46:05.028Z,71.18
2022-12-12T20:49:06.819Z,71.03
2022-12-12T20:52:07.847Z,73.05
2022-12-12T20:55:03.933Z,70.45
2022-12-12T20:58:06.835Z,68.72
2022-12-12T21:01:07.852Z,72.90
2022-12-12T21:04:12.882Z,79.80
2022-12-12T21:07:14.984Z,75.40
2022-12-12T21:10:08.836Z,74.63
2022-12-12T21:13:10.074Z,68.15
2022-12-12T21:16:11.853Z,72.72
2022-12-12T21:19:15.975Z,83.90
2022-12-12T21:22:17.238Z,71.57
2022-12-12T21:28:18.929Z,69.22
2022-12-12T21:31:26.389Z,79.18
2022-12-12T21:34:26.860Z,73.45
2022-12-12T21:37:28.247Z,71.40
2022-12-12T21:43:31.056Z,73.10
2022-12-12T21:46:34.901Z,68.10
2022-12-12T21:49:36.903Z,72.13
2022-12-12T21:52:39.001Z,66.70
2022-12-12T21:55:39.833Z,73.75
2022-12-12T21:58:40.848Z,77.07
2022-12-12T22:04:43.842Z,73.38
2022-12-12T22:07:44.861Z,81.53
2022-12-12T22:10:45.881Z,77.18
2022-12-12T22:13:54.892Z,77.32
2022-12-12T22:16:55.839Z,98.75
2022-12-12T22:22:58.052Z,93.43
2022-12-12T22:29:00.195Z,73.65
2022-12-12T22:32:01.858Z,92.82
2022-12-12T22:35:04.880Z,80.10
2022-12-12T22:38:05.855Z,98.35
2022-12-12T22:41:07.881Z,91.00
2022-12-12T22:44:11.991Z,95.15
2022-12-12T22:47:12.954Z,93.32
2022-12-12T22:50:13.871Z,101.85
2022-12-12T22:53:14.876Z,111.47
2022-12-12T22:56:16.873Z,97.32
2022-12-12T22:59:18.840Z,94.43
2022-12-12T23:02:24.768Z,94.65
2022-12-12T23:05:25.930Z,99.40
2022-12-12T23:08:26.967Z,94.82
2022-12-12T23:11:22.910Z,91.38
2022-12-12T23:14:27.939Z,100.28
2022-12-12T23:17:29.964Z,101.07
2022-12-12T23:20:30.924Z,88.50
2022-12-12T23:23:32.947Z,89.85
2022-12-12T23:26:36.899Z,76.70
2022-12-12T23:29:37.901Z,85.15
2022-12-12T23:32:38.933Z,82.22
2022-12-12T23:35:40.160Z,82.53
2022-12-12T23:38:40.929Z,81.15
2022-12-12T23:41:42.936Z,77.40
2022-12-12T23:44:43.952Z,81.70
2022-12-12T23:47:44.960Z,91.85
2022-12-12T23:53:47.685Z,81.65
2022-12-12T23:59:48.959Z,80.38
